sensor_id;sensor_type;location;lat;lon;timestamp;temperature;humidity
59977;DHT22;45837;51.076;3.578;2022-10-22T00:00:13;19.90;70.40
59977;DHT22;45837;51.076;3.578;2022-10-22T00:02:40;19.90;70.50
59977;DHT22;45837;51.076;3.578;2022-10-22T00:05:06;19.90;70.40
59977;DHT22;45837;51.076;3.578;2022-10-22T00:07:32;19.90;70.50
59977;DHT22;45837;51.076;3.578;2022-10-22T00:09:58;19.90;70.50
59977;DHT22;45837;51.076;3.578;2022-10-22T00:12:25;19.90;70.50
59977;DHT22;45837;51.076;3.578;2022-10-22T00:14:51;19.90;70.50
59977;DHT22;45837;51.076;3.578;2022-10-22T00:17:17;19.90;70.60
59977;DHT22;45837;51.076;3.578;2022-10-22T00:19:43;19.90;70.50
59977;DHT22;45837;51.076;3.578;2022-10-22T00:22:10;19.90;70.40
59977;DHT22;45837;51.076;3.578;2022-10-22T00:24:37;19.90;70.40
59977;DHT22;45837;51.076;3.578;2022-10-22T00:27:03;19.90;70.50
59977;DHT22;45837;51.076;3.578;2022-10-22T00:29:30;19.90;70.40
59977;DHT22;45837;51.076;3.578;2022-10-22T00:31:56;19.90;70.40
59977;DHT22;45837;51.076;3.578;2022-10-22T00:34:22;19.90;70.40
59977;DHT22;45837;51.076;3.578;2022-10-22T00:36:49;19.90;70.50
59977;DHT22;45837;51.076;3.578;2022-10-22T00:39:15;19.90;70.50
59977;DHT22;45837;51.076;3.578;2022-10-22T00:41:42;19.90;70.50
59977;DHT22;45837;51.076;3.578;2022-10-22T00:47:13;19.90;70.50
59977;DHT22;45837;51.076;3.578;2022-10-22T00:49:40;19.80;70.40
59977;DHT22;45837;51.076;3.578;2022-10-22T00:52:06;19.80;70.40
59977;DHT22;45837;51.076;3.578;2022-10-22T00:54:32;19.90;70.50
59977;DHT22;45837;51.076;3.578;2022-10-22T00:56:59;19.80;70.50
59977;DHT22;45837;51.076;3.578;2022-10-22T00:59:25;19.80;70.50
59977;DHT22;45837;51.076;3.578;2022-10-22T01:01:51;19.80;70.40
59977;DHT22;45837;51.076;3.578;2022-10-22T01:04:19;19.80;70.50
59977;DHT22;45837;51.076;3.578;2022-10-22T01:06:45;19.90;70.50
59977;DHT22;45837;51.076;3.578;2022-10-22T01:09:24;19.80;70.50
59977;DHT22;45837;51.076;3.578;2022-10-22T01:12:04;19.80;70.40
59977;DHT22;45837;51.076;3.578;2022-10-22T01:25:36;19.80;70.30
59977;DHT22;45837;51.076;3.578;2022-10-22T01:28:10;19.80;70.40
59977;DHT22;45837;51.076;3.578;2022-10-22T01:30:42;19.80;70.30
59977;DHT22;45837;51.076;3.578;2022-10-22T01:33:12;19.80;70.30
59977;DHT22;45837;51.076;3.578;2022-10-22T01:35:42;19.80;70.40
59977;DHT22;45837;51.076;3.578;2022-10-22T01:38:16;19.80;70.30
59977;DHT22;45837;51.076;3.578;2022-10-22T01:40:42;19.80;70.30
59977;DHT22;45837;51.076;3.578;2022-10-22T01:43:09;19.80;70.30
59977;DHT22;45837;51.076;3.578;2022-10-22T01:45:42;19.80;70.30
59977;DHT22;45837;51.076;3.578;2022-10-22T01:57:06;19.80;70.30
59977;DHT22;45837;51.076;3.578;2022-10-22T01:59:37;19.80;70.30
59977;DHT22;45837;51.076;3.578;2022-10-22T02:05:11;19.80;70.30
59977;DHT22;45837;51.076;3.578;2022-10-22T02:07:36;19.80;70.30
59977;DHT22;45837;51.076;3.578;2022-10-22T02:10:04;19.80;70.20
59977;DHT22;45837;51.076;3.578;2022-10-22T02:12:32;19.80;70.20
59977;DHT22;45837;51.076;3.578;2022-10-22T02:15:00;19.80;70.20
59977;DHT22;45837;51.076;3.578;2022-10-22T02:17:29;19.80;70.20
59977;DHT22;45837;51.076;3.578;2022-10-22T02:20:07;19.80;70.10
59977;DHT22;45837;51.076;3.578;2022-10-22T02:22:34;19.80;70.20
59977;DHT22;45837;51.076;3.578;2022-10-22T02:25:02;19.80;70.20
59977;DHT22;45837;51.076;3.578;2022-10-22T02:27:29;19.80;70.00
59977;DHT22;45837;51.076;3.578;2022-10-22T02:32:35;19.80;70.00
59977;DHT22;45837;51.076;3.578;2022-10-22T02:35:03;19.90;70.10
59977;DHT22;45837;51.076;3.578;2022-10-22T02:37:30;19.80;70.00
59977;DHT22;45837;51.076;3.578;2022-10-22T02:39:56;19.80;69.90
59977;DHT22;45837;51.076;3.578;2022-10-22T02:42:25;19.80;70.00
59977;DHT22;45837;51.076;3.578;2022-10-22T02:44:51;19.80;70.00
59977;DHT22;45837;51.076;3.578;2022-10-22T02:47:17;19.80;70.00
59977;DHT22;45837;51.076;3.578;2022-10-22T02:49:43;19.80;69.90
59977;DHT22;45837;51.076;3.578;2022-10-22T02:52:08;19.80;69.90
59977;DHT22;45837;51.076;3.578;2022-10-22T02:54:34;19.80;69.90
59977;DHT22;45837;51.076;3.578;2022-10-22T02:57:00;19.80;69.80
59977;DHT22;45837;51.076;3.578;2022-10-22T02:59:25;19.80;69.70
59977;DHT22;45837;51.076;3.578;2022-10-22T03:01:51;19.90;69.80
59977;DHT22;45837;51.076;3.578;2022-10-22T03:04:17;19.90;69.60
59977;DHT22;45837;51.076;3.578;2022-10-22T03:06:43;19.90;70.50
59977;DHT22;45837;51.076;3.578;2022-10-22T03:09:09;19.80;69.80
59977;DHT22;45837;51.076;3.578;2022-10-22T03:11:35;19.90;69.70
59977;DHT22;45837;51.076;3.578;2022-10-22T03:14:01;19.90;69.70
59977;DHT22;45837;51.076;3.578;2022-10-22T03:16:26;19.90;69.50
59977;DHT22;45837;51.076;3.578;2022-10-22T03:18:52;19.90;69.50
59977;DHT22;45837;51.076;3.578;2022-10-22T03:23:47;19.90;69.50
59977;DHT22;45837;51.076;3.578;2022-10-22T03:26:13;19.90;69.40
59977;DHT22;45837;51.076;3.578;2022-10-22T03:28:40;19.90;69.40
59977;DHT22;45837;51.076;3.578;2022-10-22T03:31:06;19.90;69.40
59977;DHT22;45837;51.076;3.578;2022-10-22T03:33:32;19.90;69.50
59977;DHT22;45837;51.076;3.578;2022-10-22T03:35:58;19.90;69.40
59977;DHT22;45837;51.076;3.578;2022-10-22T03:38:25;19.90;69.30
59977;DHT22;45837;51.076;3.578;2022-10-22T03:40:51;19.90;69.30
59977;DHT22;45837;51.076;3.578;2022-10-22T03:43:17;19.90;69.30
59977;DHT22;45837;51.076;3.578;2022-10-22T03:45:43;19.90;69.30
59977;DHT22;45837;51.076;3.578;2022-10-22T03:48:08;19.90;69.30
59977;DHT22;45837;51.076;3.578;2022-10-22T03:50:34;19.90;69.40
59977;DHT22;45837;51.076;3.578;2022-10-22T03:53:00;19.90;69.30
59977;DHT22;45837;51.076;3.578;2022-10-22T03:55:26;19.90;69.30
59977;DHT22;45837;51.076;3.578;2022-10-22T03:57:52;19.90;69.30
59977;DHT22;45837;51.076;3.578;2022-10-22T04:00:17;19.90;69.30
59977;DHT22;45837;51.076;3.578;2022-10-22T04:02:43;19.90;69.30
59977;DHT22;45837;51.076;3.578;2022-10-22T04:05:09;19.90;69.30
59977;DHT22;45837;51.076;3.578;2022-10-22T04:07:34;19.90;69.30
59977;DHT22;45837;51.076;3.578;2022-10-22T04:10:00;19.90;69.30
59977;DHT22;45837;51.076;3.578;2022-10-22T04:12:26;19.90;69.30
59977;DHT22;45837;51.076;3.578;2022-10-22T04:14:52;19.90;69.40
59977;DHT22;45837;51.076;3.578;2022-10-22T04:17:17;19.90;70.00
59977;DHT22;45837;51.076;3.578;2022-10-22T04:19:43;19.90;69.30
59977;DHT22;45837;51.076;3.578;2022-10-22T04:22:09;19.90;69.20
59977;DHT22;45837;51.076;3.578;2022-10-22T04:24:35;19.90;69.30
59977;DHT22;45837;51.076;3.578;2022-10-22T04:27:00;19.90;69.30
59977;DHT22;45837;51.076;3.578;2022-10-22T04:29:26;19.90;69.20
59977;DHT22;45837;51.076;3.578;2022-10-22T04:31:52;19.90;69.30
59977;DHT22;45837;51.076;3.578;2022-10-22T04:34:18;19.90;69.30
59977;DHT22;45837;51.076;3.578;2022-10-22T04:36:43;19.90;69.10
59977;DHT22;45837;51.076;3.578;2022-10-22T04:39:09;19.90;69.10
59977;DHT22;45837;51.076;3.578;2022-10-22T04:41:37;19.90;69.10
59977;DHT22;45837;51.076;3.578;2022-10-22T04:44:04;19.90;69.10
59977;DHT22;45837;51.076;3.578;2022-10-22T04:46:32;19.90;69.20
59977;DHT22;45837;51.076;3.578;2022-10-22T04:48:58;19.90;69.10
59977;DHT22;45837;51.076;3.578;2022-10-22T04:51:25;19.90;69.30
59977;DHT22;45837;51.076;3.578;2022-10-22T04:53:52;19.90;69.10
59977;DHT22;45837;51.076;3.578;2022-10-22T04:56:18;19.90;69.20
59977;DHT22;45837;51.076;3.578;2022-10-22T04:58:46;19.90;69.10
59977;DHT22;45837;51.076;3.578;2022-10-22T05:03:44;19.80;69.00
59977;DHT22;45837;51.076;3.578;2022-10-22T05:06:10;19.90;69.10
59977;DHT22;45837;51.076;3.578;2022-10-22T05:08:36;19.90;69.10
59977;DHT22;45837;51.076;3.578;2022-10-22T05:11:13;19.90;69.10
59977;DHT22;45837;51.076;3.578;2022-10-22T05:13:39;19.90;69.10
59977;DHT22;45837;51.076;3.578;2022-10-22T05:16:05;19.90;69.10
59977;DHT22;45837;51.076;3.578;2022-10-22T05:18:34;19.90;69.10
59977;DHT22;45837;51.076;3.578;2022-10-22T05:21:11;19.90;69.10
59977;DHT22;45837;51.076;3.578;2022-10-22T05:23:37;19.90;69.10
59977;DHT22;45837;51.076;3.578;2022-10-22T05:26:05;19.90;69.20
59977;DHT22;45837;51.076;3.578;2022-10-22T05:28:31;19.80;69.10
59977;DHT22;45837;51.076;3.578;2022-10-22T05:30:58;19.80;69.10
59977;DHT22;45837;51.076;3.578;2022-10-22T05:33:25;19.80;69.10
59977;DHT22;45837;51.076;3.578;2022-10-22T05:35:51;19.90;69.10
59977;DHT22;45837;51.076;3.578;2022-10-22T05:38:18;19.80;69.00
59977;DHT22;45837;51.076;3.578;2022-10-22T05:40:43;19.80;68.50
59977;DHT22;45837;51.076;3.578;2022-10-22T05:43:09;19.80;68.60
59977;DHT22;45837;51.076;3.578;2022-10-22T05:45:39;19.90;69.10
59977;DHT22;45837;51.076;3.578;2022-10-22T05:48:06;19.90;69.60
59977;DHT22;45837;51.076;3.578;2022-10-22T05:50:35;19.90;69.50
59977;DHT22;45837;51.076;3.578;2022-10-22T05:53:02;19.80;69.50
59977;DHT22;45837;51.076;3.578;2022-10-22T05:55:28;19.80;69.90
59977;DHT22;45837;51.076;3.578;2022-10-22T05:57:54;19.80;69.80
59977;DHT22;45837;51.076;3.578;2022-10-22T06:00:20;19.80;70.40
59977;DHT22;45837;51.076;3.578;2022-10-22T06:02:50;19.80;70.50
59977;DHT22;45837;51.076;3.578;2022-10-22T06:05:16;19.90;70.70
59977;DHT22;45837;51.076;3.578;2022-10-22T06:07:41;19.90;70.70
59977;DHT22;45837;51.076;3.578;2022-10-22T06:10:19;19.90;70.70
59977;DHT22;45837;51.076;3.578;2022-10-22T06:12:46;19.90;70.70
59977;DHT22;45837;51.076;3.578;2022-10-22T06:15:14;20.00;70.40
59977;DHT22;45837;51.076;3.578;2022-10-22T06:17:40;20.00;70.30
59977;DHT22;45837;51.076;3.578;2022-10-22T06:20:07;20.00;70.30
59977;DHT22;45837;51.076;3.578;2022-10-22T06:22:33;20.00;70.40
59977;DHT22;45837;51.076;3.578;2022-10-22T06:24:58;20.00;70.40
59977;DHT22;45837;51.076;3.578;2022-10-22T06:27:24;20.00;70.50
59977;DHT22;45837;51.076;3.578;2022-10-22T06:29:50;20.00;69.80
59977;DHT22;45837;51.076;3.578;2022-10-22T06:32:15;19.90;69.30
59977;DHT22;45837;51.076;3.578;2022-10-22T06:34:41;19.90;69.80
59977;DHT22;45837;51.076;3.578;2022-10-22T06:37:09;19.90;69.70
59977;DHT22;45837;51.076;3.578;2022-10-22T06:39:34;19.90;69.90
59977;DHT22;45837;51.076;3.578;2022-10-22T06:42:00;19.90;69.70
59977;DHT22;45837;51.076;3.578;2022-10-22T06:44:32;19.90;69.70
59977;DHT22;45837;51.076;3.578;2022-10-22T06:46:58;19.90;69.50
59977;DHT22;45837;51.076;3.578;2022-10-22T06:49:24;19.90;69.00
59977;DHT22;45837;51.076;3.578;2022-10-22T06:51:52;19.90;68.40
59977;DHT22;45837;51.076;3.578;2022-10-22T06:54:19;19.90;68.20
59977;DHT22;45837;51.076;3.578;2022-10-22T06:56:44;19.80;68.10
59977;DHT22;45837;51.076;3.578;2022-10-22T06:59:10;19.80;68.10
59977;DHT22;45837;51.076;3.578;2022-10-22T07:01:36;19.80;68.10
59977;DHT22;45837;51.076;3.578;2022-10-22T07:04:03;19.80;68.30
59977;DHT22;45837;51.076;3.578;2022-10-22T07:06:30;19.80;68.40
59977;DHT22;45837;51.076;3.578;2022-10-22T07:08:57;19.90;68.70
59977;DHT22;45837;51.076;3.578;2022-10-22T07:11:25;19.90;68.50
59977;DHT22;45837;51.076;3.578;2022-10-22T07:13:54;19.90;68.50
59977;DHT22;45837;51.076;3.578;2022-10-22T07:16:20;20.00;68.50
59977;DHT22;45837;51.076;3.578;2022-10-22T07:18:46;19.90;67.90
59977;DHT22;45837;51.076;3.578;2022-10-22T07:21:14;19.90;68.70
59977;DHT22;45837;51.076;3.578;2022-10-22T07:23:40;20.00;68.20
59977;DHT22;45837;51.076;3.578;2022-10-22T07:26:06;19.90;68.00
59977;DHT22;45837;51.076;3.578;2022-10-22T07:28:36;20.00;68.10
59977;DHT22;45837;51.076;3.578;2022-10-22T07:31:10;19.90;67.50
59977;DHT22;45837;51.076;3.578;2022-10-22T07:33:36;19.90;67.30
59977;DHT22;45837;51.076;3.578;2022-10-22T07:36:05;19.80;67.10
59977;DHT22;45837;51.076;3.578;2022-10-22T07:38:31;19.80;67.10
59977;DHT22;45837;51.076;3.578;2022-10-22T07:40:57;19.70;68.00
59977;DHT22;45837;51.076;3.578;2022-10-22T07:43:23;19.70;67.00
59977;DHT22;45837;51.076;3.578;2022-10-22T07:45:49;19.70;66.90
59977;DHT22;45837;51.076;3.578;2022-10-22T07:48:15;19.70;66.90
59977;DHT22;45837;51.076;3.578;2022-10-22T07:50:41;19.60;66.80
59977;DHT22;45837;51.076;3.578;2022-10-22T07:53:22;19.70;67.60
59977;DHT22;45837;51.076;3.578;2022-10-22T07:55:49;19.70;66.70
59977;DHT22;45837;51.076;3.578;2022-10-22T07:58:17;19.70;66.70
59977;DHT22;45837;51.076;3.578;2022-10-22T08:00:43;19.60;66.60
59977;DHT22;45837;51.076;3.578;2022-10-22T08:03:11;19.60;67.00
59977;DHT22;45837;51.076;3.578;2022-10-22T08:05:37;19.70;66.90
59977;DHT22;45837;51.076;3.578;2022-10-22T08:08:05;19.70;67.00
59977;DHT22;45837;51.076;3.578;2022-10-22T08:10:31;19.70;67.20
59977;DHT22;45837;51.076;3.578;2022-10-22T08:12:56;19.80;67.30
59977;DHT22;45837;51.076;3.578;2022-10-22T08:15:22;19.80;67.20
59977;DHT22;45837;51.076;3.578;2022-10-22T08:17:50;19.90;67.50
59977;DHT22;45837;51.076;3.578;2022-10-22T08:20:16;19.90;67.50
59977;DHT22;45837;51.076;3.578;2022-10-22T08:22:42;19.90;67.50
59977;DHT22;45837;51.076;3.578;2022-10-22T08:25:08;19.90;67.40
59977;DHT22;45837;51.076;3.578;2022-10-22T08:27:34;19.90;68.00
59977;DHT22;45837;51.076;3.578;2022-10-22T08:30:00;20.00;67.60
59977;DHT22;45837;51.076;3.578;2022-10-22T08:32:25;20.00;67.50
59977;DHT22;45837;51.076;3.578;2022-10-22T08:34:51;20.00;67.60
59977;DHT22;45837;51.076;3.578;2022-10-22T08:37:17;20.00;68.40
59977;DHT22;45837;51.076;3.578;2022-10-22T08:39:43;20.00;67.70
59977;DHT22;45837;51.076;3.578;2022-10-22T08:45:24;20.10;67.60
59977;DHT22;45837;51.076;3.578;2022-10-22T08:48:12;20.10;67.70
59977;DHT22;45837;51.076;3.578;2022-10-22T08:50:47;20.10;67.60
59977;DHT22;45837;51.076;3.578;2022-10-22T08:53:17;20.10;67.70
59977;DHT22;45837;51.076;3.578;2022-10-22T08:55:44;20.10;67.70
59977;DHT22;45837;51.076;3.578;2022-10-22T09:00:58;20.10;67.80
59977;DHT22;45837;51.076;3.578;2022-10-22T09:03:48;20.10;67.70
59977;DHT22;45837;51.076;3.578;2022-10-22T09:06:21;20.10;68.50
59977;DHT22;45837;51.076;3.578;2022-10-22T09:08:49;20.10;68.60
59977;DHT22;45837;51.076;3.578;2022-10-22T09:11:21;20.10;68.90
59977;DHT22;45837;51.076;3.578;2022-10-22T09:13:48;20.10;68.70
59977;DHT22;45837;51.076;3.578;2022-10-22T09:24:13;20.20;68.70
59977;DHT22;45837;51.076;3.578;2022-10-22T09:26:41;20.20;68.80
59977;DHT22;45837;51.076;3.578;2022-10-22T09:29:15;20.20;68.60
59977;DHT22;45837;51.076;3.578;2022-10-22T09:31:42;20.30;68.50
59977;DHT22;45837;51.076;3.578;2022-10-22T09:34:08;20.30;68.60
59977;DHT22;45837;51.076;3.578;2022-10-22T09:36:34;20.30;68.40
59977;DHT22;45837;51.076;3.578;2022-10-22T09:39:00;20.30;68.40
59977;DHT22;45837;51.076;3.578;2022-10-22T09:41:29;20.30;67.80
59977;DHT22;45837;51.076;3.578;2022-10-22T09:43:56;20.30;67.70
59977;DHT22;45837;51.076;3.578;2022-10-22T09:46:24;20.30;67.20
59977;DHT22;45837;51.076;3.578;2022-10-22T09:49:05;20.20;67.10
59977;DHT22;45837;51.076;3.578;2022-10-22T09:51:51;20.20;67.10
59977;DHT22;45837;51.076;3.578;2022-10-22T09:57:02;20.20;66.50
59977;DHT22;45837;51.076;3.578;2022-10-22T09:59:31;20.20;66.30
59977;DHT22;45837;51.076;3.578;2022-10-22T10:02:08;20.20;65.80
59977;DHT22;45837;51.076;3.578;2022-10-22T10:04:41;20.20;65.50
59977;DHT22;45837;51.076;3.578;2022-10-22T10:07:30;20.10;65.20
59977;DHT22;45837;51.076;3.578;2022-10-22T10:09:56;20.10;65.50
59977;DHT22;45837;51.076;3.578;2022-10-22T10:15:21;20.10;65.60
59977;DHT22;45837;51.076;3.578;2022-10-22T10:21:02;20.10;65.20
59977;DHT22;45837;51.076;3.578;2022-10-22T10:24:56;20.20;65.10
59977;DHT22;45837;51.076;3.578;2022-10-22T10:35:28;20.20;65.10
59977;DHT22;45837;51.076;3.578;2022-10-22T10:37:59;20.20;65.10
59977;DHT22;45837;51.076;3.578;2022-10-22T10:43:10;20.20;65.00
59977;DHT22;45837;51.076;3.578;2022-10-22T10:54:03;20.20;64.50
59977;DHT22;45837;51.076;3.578;2022-10-22T10:56:46;20.30;64.60
59977;DHT22;45837;51.076;3.578;2022-10-22T11:02:20;20.30;64.80
59977;DHT22;45837;51.076;3.578;2022-10-22T11:04:59;20.40;64.30
59977;DHT22;45837;51.076;3.578;2022-10-22T11:07:36;20.40;63.80
59977;DHT22;45837;51.076;3.578;2022-10-22T11:10:12;20.40;63.80
59977;DHT22;45837;51.076;3.578;2022-10-22T11:12:45;20.30;63.70
59977;DHT22;45837;51.076;3.578;2022-10-22T11:15:34;20.30;63.70
59977;DHT22;45837;51.076;3.578;2022-10-22T11:18:23;20.30;63.70
59977;DHT22;45837;51.076;3.578;2022-10-22T11:21:44;20.30;64.00
59977;DHT22;45837;51.076;3.578;2022-10-22T11:24:25;20.30;63.50
59977;DHT22;45837;51.076;3.578;2022-10-22T11:30:12;20.30;63.50
59977;DHT22;45837;51.076;3.578;2022-10-22T11:32:40;20.40;63.00
59977;DHT22;45837;51.076;3.578;2022-10-22T11:35:13;20.40;63.00
59977;DHT22;45837;51.076;3.578;2022-10-22T11:37:39;20.40;63.10
59977;DHT22;45837;51.076;3.578;2022-10-22T11:40:19;20.50;63.00
59977;DHT22;45837;51.076;3.578;2022-10-22T11:42:57;20.50;63.10
59977;DHT22;45837;51.076;3.578;2022-10-22T11:55:57;20.60;62.00
59977;DHT22;45837;51.076;3.578;2022-10-22T12:08:31;20.60;62.40
59977;DHT22;45837;51.076;3.578;2022-10-22T12:14:20;20.60;62.20
59977;DHT22;45837;51.076;3.578;2022-10-22T12:19:36;20.60;62.50
59977;DHT22;45837;51.076;3.578;2022-10-22T12:24:40;20.60;62.50
59977;DHT22;45837;51.076;3.578;2022-10-22T12:27:24;20.60;62.70
59977;DHT22;45837;51.076;3.578;2022-10-22T12:29:58;20.60;62.70
59977;DHT22;45837;51.076;3.578;2022-10-22T12:32:38;20.50;62.30
59977;DHT22;45837;51.076;3.578;2022-10-22T12:35:14;20.50;62.30
59977;DHT22;45837;51.076;3.578;2022-10-22T12:37:41;20.50;61.90
59977;DHT22;45837;51.076;3.578;2022-10-22T12:40:30;20.50;62.30
59977;DHT22;45837;51.076;3.578;2022-10-22T12:43:00;20.40;62.00
59977;DHT22;45837;51.076;3.578;2022-10-22T12:45:30;20.40;62.20
59977;DHT22;45837;51.076;3.578;2022-10-22T12:47:58;20.40;62.40
59977;DHT22;45837;51.076;3.578;2022-10-22T12:50:31;20.40;62.20
59977;DHT22;45837;51.076;3.578;2022-10-22T12:52:57;20.40;62.00
59977;DHT22;45837;51.076;3.578;2022-10-22T12:55:24;20.30;61.70
59977;DHT22;45837;51.076;3.578;2022-10-22T12:57:51;20.30;61.80
59977;DHT22;45837;51.076;3.578;2022-10-22T13:00:25;20.30;61.50
59977;DHT22;45837;51.076;3.578;2022-10-22T13:02:52;20.30;61.70
59977;DHT22;45837;51.076;3.578;2022-10-22T13:08:10;20.30;61.60
59977;DHT22;45837;51.076;3.578;2022-10-22T13:10:39;20.30;61.80
59977;DHT22;45837;51.076;3.578;2022-10-22T13:13:05;20.40;61.70
59977;DHT22;45837;51.076;3.578;2022-10-22T13:20:29;20.40;61.10
59977;DHT22;45837;51.076;3.578;2022-10-22T13:22:58;20.30;60.70
59977;DHT22;45837;51.076;3.578;2022-10-22T13:25:33;20.30;61.10
59977;DHT22;45837;51.076;3.578;2022-10-22T13:28:19;20.30;61.10
59977;DHT22;45837;51.076;3.578;2022-10-22T13:30:55;20.30;61.10
59977;DHT22;45837;51.076;3.578;2022-10-22T13:33:39;20.40;61.10
59977;DHT22;45837;51.076;3.578;2022-10-22T13:36:05;20.30;61.20
59977;DHT22;45837;51.076;3.578;2022-10-22T13:38:31;20.30;60.90
59977;DHT22;45837;51.076;3.578;2022-10-22T13:40:58;20.30;61.40
59977;DHT22;45837;51.076;3.578;2022-10-22T13:43:24;20.30;61.10
59977;DHT22;45837;51.076;3.578;2022-10-22T13:45:57;20.30;61.30
59977;DHT22;45837;51.076;3.578;2022-10-22T13:48:24;20.30;61.20
59977;DHT22;45837;51.076;3.578;2022-10-22T13:50:51;20.30;61.20
59977;DHT22;45837;51.076;3.578;2022-10-22T13:53:22;20.30;61.50
59977;DHT22;45837;51.076;3.578;2022-10-22T13:55:49;20.30;61.70
59977;DHT22;45837;51.076;3.578;2022-10-22T13:58:18;20.30;61.70
59977;DHT22;45837;51.076;3.578;2022-10-22T14:00:52;20.30;61.70
59977;DHT22;45837;51.076;3.578;2022-10-22T14:03:24;20.30;61.70
59977;DHT22;45837;51.076;3.578;2022-10-22T14:05:50;20.30;61.80
59977;DHT22;45837;51.076;3.578;2022-10-22T14:08:19;20.30;61.80
59977;DHT22;45837;51.076;3.578;2022-10-22T14:10:45;20.30;62.00
59977;DHT22;45837;51.076;3.578;2022-10-22T14:13:13;20.30;62.00
59977;DHT22;45837;51.076;3.578;2022-10-22T14:15:39;20.30;62.20
59977;DHT22;45837;51.076;3.578;2022-10-22T14:18:06;20.30;62.30
59977;DHT22;45837;51.076;3.578;2022-10-22T14:20:35;20.30;62.50
59977;DHT22;45837;51.076;3.578;2022-10-22T14:25:39;20.30;62.40
59977;DHT22;45837;51.076;3.578;2022-10-22T14:28:05;20.30;62.50
59977;DHT22;45837;51.076;3.578;2022-10-22T14:30:30;20.30;62.40
59977;DHT22;45837;51.076;3.578;2022-10-22T14:32:57;20.30;62.50
59977;DHT22;45837;51.076;3.578;2022-10-22T14:35:24;20.30;63.30
59977;DHT22;45837;51.076;3.578;2022-10-22T14:37:50;20.30;62.70
59977;DHT22;45837;51.076;3.578;2022-10-22T14:40:18;20.20;62.90
59977;DHT22;45837;51.076;3.578;2022-10-22T14:42:46;20.30;63.30
59977;DHT22;45837;51.076;3.578;2022-10-22T14:45:22;20.30;63.00
59977;DHT22;45837;51.076;3.578;2022-10-22T14:47:50;20.30;62.70
59977;DHT22;45837;51.076;3.578;2022-10-22T14:50:17;20.20;62.80
59977;DHT22;45837;51.076;3.578;2022-10-22T14:52:43;20.30;63.00
59977;DHT22;45837;51.076;3.578;2022-10-22T14:55:10;20.30;63.00
59977;DHT22;45837;51.076;3.578;2022-10-22T14:57:36;20.30;63.20
59977;DHT22;45837;51.076;3.578;2022-10-22T15:00:06;20.20;62.90
59977;DHT22;45837;51.076;3.578;2022-10-22T15:02:32;20.30;63.30
59977;DHT22;45837;51.076;3.578;2022-10-22T15:04:57;20.30;63.40
59977;DHT22;45837;51.076;3.578;2022-10-22T15:07:23;20.30;63.40
59977;DHT22;45837;51.076;3.578;2022-10-22T15:09:49;20.20;63.30
59977;DHT22;45837;51.076;3.578;2022-10-22T15:12:15;20.20;63.30
59977;DHT22;45837;51.076;3.578;2022-10-22T15:14:41;20.30;63.60
59977;DHT22;45837;51.076;3.578;2022-10-22T15:17:07;20.20;63.50
59977;DHT22;45837;51.076;3.578;2022-10-22T15:19:32;20.20;63.50
59977;DHT22;45837;51.076;3.578;2022-10-22T15:21:58;20.20;63.70
59977;DHT22;45837;51.076;3.578;2022-10-22T15:24:24;20.20;63.80
59977;DHT22;45837;51.076;3.578;2022-10-22T15:26:50;20.20;64.00
59977;DHT22;45837;51.076;3.578;2022-10-22T15:29:17;20.10;63.80
59977;DHT22;45837;51.076;3.578;2022-10-22T15:34:22;20.10;64.00
59977;DHT22;45837;51.076;3.578;2022-10-22T15:36:49;20.10;64.20
59977;DHT22;45837;51.076;3.578;2022-10-22T15:39:16;20.10;64.20
59977;DHT22;45837;51.076;3.578;2022-10-22T15:41:42;20.10;64.30
59977;DHT22;45837;51.076;3.578;2022-10-22T15:44:17;20.10;64.30
59977;DHT22;45837;51.076;3.578;2022-10-22T15:46:43;20.10;64.30
59977;DHT22;45837;51.076;3.578;2022-10-22T15:49:09;20.10;64.40
59977;DHT22;45837;51.076;3.578;2022-10-22T15:51:36;20.10;65.20
59977;DHT22;45837;51.076;3.578;2022-10-22T15:54:02;20.10;64.50
59977;DHT22;45837;51.076;3.578;2022-10-22T15:56:28;20.10;64.60
59977;DHT22;45837;51.076;3.578;2022-10-22T15:58:56;20.10;64.80
59977;DHT22;45837;51.076;3.578;2022-10-22T16:01:23;20.00;64.60
59977;DHT22;45837;51.076;3.578;2022-10-22T16:03:49;20.10;64.70
59977;DHT22;45837;51.076;3.578;2022-10-22T16:06:18;20.10;65.20
59977;DHT22;45837;51.076;3.578;2022-10-22T16:08:43;20.10;65.20
59977;DHT22;45837;51.076;3.578;2022-10-22T16:11:09;20.10;65.60
59977;DHT22;45837;51.076;3.578;2022-10-22T16:13:35;20.20;65.80
59977;DHT22;45837;51.076;3.578;2022-10-22T16:16:06;20.20;65.80
59977;DHT22;45837;51.076;3.578;2022-10-22T16:18:35;20.20;66.10
59977;DHT22;45837;51.076;3.578;2022-10-22T16:21:00;20.30;66.10
59977;DHT22;45837;51.076;3.578;2022-10-22T16:23:26;20.30;66.60
59977;DHT22;45837;51.076;3.578;2022-10-22T16:25:52;20.30;66.70
59977;DHT22;45837;51.076;3.578;2022-10-22T16:28:18;20.40;67.60
59977;DHT22;45837;51.076;3.578;2022-10-22T16:30:44;20.20;67.50
59977;DHT22;45837;51.076;3.578;2022-10-22T16:33:10;20.40;67.60
59977;DHT22;45837;51.076;3.578;2022-10-22T16:35:40;20.40;67.90
59977;DHT22;45837;51.076;3.578;2022-10-22T16:38:07;20.50;67.80
59977;DHT22;45837;51.076;3.578;2022-10-22T16:40:33;20.40;67.70
59977;DHT22;45837;51.076;3.578;2022-10-22T16:42:59;20.40;68.10
59977;DHT22;45837;51.076;3.578;2022-10-22T16:45:24;20.50;68.10
59977;DHT22;45837;51.076;3.578;2022-10-22T16:47:50;20.50;68.20
59977;DHT22;45837;51.076;3.578;2022-10-22T16:50:16;20.50;68.00
59977;DHT22;45837;51.076;3.578;2022-10-22T16:52:42;20.50;67.90
59977;DHT22;45837;51.076;3.578;2022-10-22T16:55:08;20.50;67.70
59977;DHT22;45837;51.076;3.578;2022-10-22T16:57:34;20.50;67.40
59977;DHT22;45837;51.076;3.578;2022-10-22T17:00:01;20.50;67.60
59977;DHT22;45837;51.076;3.578;2022-10-22T17:02:27;20.50;68.40
59977;DHT22;45837;51.076;3.578;2022-10-22T17:04:53;20.40;67.40
59977;DHT22;45837;51.076;3.578;2022-10-22T17:07:19;20.50;67.40
59977;DHT22;45837;51.076;3.578;2022-10-22T17:09:45;20.50;67.70
59977;DHT22;45837;51.076;3.578;2022-10-22T17:12:11;20.40;67.60
59977;DHT22;45837;51.076;3.578;2022-10-22T17:14:37;20.40;67.80
59977;DHT22;45837;51.076;3.578;2022-10-22T17:17:03;20.40;68.00
59977;DHT22;45837;51.076;3.578;2022-10-22T17:19:29;20.40;68.30
59977;DHT22;45837;51.076;3.578;2022-10-22T17:21:55;20.30;68.50
59977;DHT22;45837;51.076;3.578;2022-10-22T17:24:20;20.30;68.90
59977;DHT22;45837;51.076;3.578;2022-10-22T17:26:46;20.30;69.10
59977;DHT22;45837;51.076;3.578;2022-10-22T17:29:13;20.30;69.40
59977;DHT22;45837;51.076;3.578;2022-10-22T17:31:39;20.30;70.10
59977;DHT22;45837;51.076;3.578;2022-10-22T17:34:09;20.40;70.10
59977;DHT22;45837;51.076;3.578;2022-10-22T17:36:36;20.40;70.20
59977;DHT22;45837;51.076;3.578;2022-10-22T17:39:04;20.30;70.70
59977;DHT22;45837;51.076;3.578;2022-10-22T17:41:33;20.40;71.00